Gordon A Keenan — WDG6853 — position and weather

sailwx.info

Track history (hours):
 
Tides and Currents Weather Stations Pressure Air Temp Water Temp Dewpoint Dewpoint Depression Visibility Wind Speed Wind Dir Waves Ship Positions

Gordon A Keenan

Owner: Higman Barge Lines, Inc., Orange, TX. More information available from US FCC via Universal Licensing System and Coast Guard Vessel Documentation Center.

Last reported at 2018-Feb-23 10:03 UTC. Time now 2018-Feb-25 00:06 UTC.
Position N 32°01' W 091°04'.

Length 24 m; draft 8.6 m.

Type: Towing. MMSI: 367561370.

Date/timePositionNaut miles runAvg speedWind from/ knotsBaromVisibWave heightAir tempDewpointWater temp
2018-Feb-23 10:03N 32°01' W 091°04'0 9.9
2018-Feb-23 10:00N 32°01' W 091°04'4 8.1
2018-Feb-23 09:30N 32°05' W 091°05'3 5.1
2018-Feb-23 09:00N 32°08' W 091°04'4 7.7
2018-Feb-23 08:30N 32°09' W 091°00'5 9.7
2018-Feb-23 08:00N 32°14' W 090°59'4 8.9
2018-Feb-23 07:30N 32°17' W 090°56'3 6.5
2018-Feb-23 07:00N 32°21' W 090°56'4 8.2
2018-Feb-23 06:30N 32°22' W 091°00'4 7.3
2018-Feb-23 06:00N 32°26' W 091°02'5 9.5
2018-Feb-23 05:30N 32°28' W 091°06'5 9.4
2018-Feb-23 05:00N 32°33' W 091°06'5 9.3
2018-Feb-23 04:30N 32°37' W 091°09'  
Track history (hours):
 
Tides and Currents Weather Stations Pressure Air Temp Water Temp Dewpoint Dewpoint Depression Visibility Wind Speed Wind Dir Waves Ship Positions

Gordon A Keenan

Owner: Higman Barge Lines, Inc., Orange, TX. More information available from US FCC via Universal Licensing System and Coast Guard Vessel Documentation Center.

Last reported at 2018-Feb-23 10:03 UTC. Time now 2018-Feb-25 00:06 UTC.
Position N 32°01' W 091°04'.

Length 24 m; draft 8.6 m.

Type: Towing. MMSI: 367561370.

Date/timePositionNaut miles runAvg speedWind from/ knotsBaromVisibWave heightAir tempDewpointWater temp
2018-Feb-23 10:03N 32°01' W 091°04'0 9.9
2018-Feb-23 10:00N 32°01' W 091°04'4 8.1
2018-Feb-23 09:30N 32°05' W 091°05'3 5.1
2018-Feb-23 09:00N 32°08' W 091°04'4 7.7
2018-Feb-23 08:30N 32°09' W 091°00'5 9.7
2018-Feb-23 08:00N 32°14' W 090°59'4 8.9
2018-Feb-23 07:30N 32°17' W 090°56'3 6.5
2018-Feb-23 07:00N 32°21' W 090°56'4 8.2
2018-Feb-23 06:30N 32°22' W 091°00'4 7.3
2018-Feb-23 06:00N 32°26' W 091°02'5 9.5
2018-Feb-23 05:30N 32°28' W 091°06'5 9.4
2018-Feb-23 05:00N 32°33' W 091°06'5 9.3
2018-Feb-23 04:30N 32°37' W 091°09'  

Dump ship's entire track history